sensor_id;sensor_type;location;lat;lon;timestamp;pressure;altitude;pressure_sealevel;temperature;humidity
71344;BME280;59146;43.850;25.948;2022-08-21T00:00:23;100367.03;;;24.76;55.38
71344;BME280;59146;43.850;25.948;2022-08-21T00:02:58;100354.97;;;24.51;56.08
71344;BME280;59146;43.850;25.948;2022-08-21T00:05:25;100357.09;;;24.56;56.38
71344;BME280;59146;43.850;25.948;2022-08-21T00:07:51;100386.22;;;24.65;57.37
71344;BME280;59146;43.850;25.948;2022-08-21T00:10:17;100368.06;;;24.61;57.49
71344;BME280;59146;43.850;25.948;2022-08-21T00:12:43;100407.94;;;24.77;57.62
71344;BME280;59146;43.850;25.948;2022-08-21T00:15:13;100390.28;;;24.76;57.79
71344;BME280;59146;43.850;25.948;2022-08-21T00:17:39;100397.53;;;24.82;58.34
71344;BME280;59146;43.850;25.948;2022-08-21T00:20:06;100396.06;;;24.65;58.38
71344;BME280;59146;43.850;25.948;2022-08-21T00:22:34;100372.94;;;24.57;58.74
71344;BME280;59146;43.850;25.948;2022-08-21T00:24:59;100390.06;;;24.63;58.47
71344;BME280;59146;43.850;25.948;2022-08-21T00:27:25;100438.25;;;24.84;59.52
71344;BME280;59146;43.850;25.948;2022-08-21T00:29:50;100409.50;;;24.86;59.71
71344;BME280;59146;43.850;25.948;2022-08-21T00:32:24;100368.09;;;24.46;60.36
71344;BME280;59146;43.850;25.948;2022-08-21T00:34:50;100413.47;;;24.75;60.54
71344;BME280;59146;43.850;25.948;2022-08-21T00:37:16;100354.53;;;24.33;60.81
71344;BME280;59146;43.850;25.948;2022-08-21T00:39:41;100370.19;;;24.51;61.36
71344;BME280;59146;43.850;25.948;2022-08-21T00:42:08;100341.84;;;24.20;61.88
71344;BME280;59146;43.850;25.948;2022-08-21T00:44:34;100421.19;;;24.56;62.22
71344;BME280;59146;43.850;25.948;2022-08-21T00:46:59;100390.00;;;24.41;61.68
71344;BME280;59146;43.850;25.948;2022-08-21T00:49:25;100416.88;;;24.55;61.41
71344;BME280;59146;43.850;25.948;2022-08-21T00:51:55;100384.00;;;24.39;61.93
71344;BME280;59146;43.850;25.948;2022-08-21T00:54:25;100418.69;;;24.69;61.97
71344;BME280;59146;43.850;25.948;2022-08-21T00:56:54;100398.91;;;24.63;62.12
71344;BME280;59146;43.850;25.948;2022-08-21T00:59:21;100301.63;;;24.07;62.17
71344;BME280;59146;43.850;25.948;2022-08-21T01:01:49;100345.44;;;24.27;62.42
71344;BME280;59146;43.850;25.948;2022-08-21T01:04:16;100356.94;;;24.28;62.80
71344;BME280;59146;43.850;25.948;2022-08-21T01:06:42;100352.53;;;24.35;62.41
71344;BME280;59146;43.850;25.948;2022-08-21T01:09:07;100340.09;;;24.27;62.77
71344;BME280;59146;43.850;25.948;2022-08-21T01:11:34;100311.56;;;24.13;62.65
71344;BME280;59146;43.850;25.948;2022-08-21T01:13:59;100380.94;;;24.42;62.89
71344;BME280;59146;43.850;25.948;2022-08-21T01:16:25;100266.53;;;23.66;63.93
71344;BME280;59146;43.850;25.948;2022-08-21T01:18:51;100348.75;;;24.29;63.98
71344;BME280;59146;43.850;25.948;2022-08-21T01:21:20;100309.00;;;24.05;63.79
71344;BME280;59146;43.850;25.948;2022-08-21T01:23:49;100344.06;;;24.31;63.43
71344;BME280;59146;43.850;25.948;2022-08-21T01:26:17;100326.56;;;24.14;63.99
71344;BME280;59146;43.850;25.948;2022-08-21T01:28:52;100344.88;;;24.17;63.87
71344;BME280;59146;43.850;25.948;2022-08-21T01:31:21;100312.00;;;24.02;64.15
71344;BME280;59146;43.850;25.948;2022-08-21T01:33:48;100303.06;;;23.95;63.95
71344;BME280;59146;43.850;25.948;2022-08-21T01:36:13;100340.47;;;24.24;64.50
71344;BME280;59146;43.850;25.948;2022-08-21T01:38:39;100321.44;;;24.13;64.45
71344;BME280;59146;43.850;25.948;2022-08-21T01:41:04;100295.06;;;23.95;64.79
71344;BME280;59146;43.850;25.948;2022-08-21T01:43:30;100267.56;;;23.80;64.57
71344;BME280;59146;43.850;25.948;2022-08-21T01:45:55;100290.81;;;23.86;65.12
71344;BME280;59146;43.850;25.948;2022-08-21T01:48:20;100338.88;;;24.15;64.72
71344;BME280;59146;43.850;25.948;2022-08-21T01:50:46;100268.94;;;23.76;64.32
71344;BME280;59146;43.850;25.948;2022-08-21T01:53:11;100352.63;;;24.27;63.74
71344;BME280;59146;43.850;25.948;2022-08-21T01:55:37;100255.41;;;23.63;64.39
71344;BME280;59146;43.850;25.948;2022-08-21T01:58:02;100318.44;;;23.93;64.73
71344;BME280;59146;43.850;25.948;2022-08-21T02:00:28;100305.81;;;23.87;64.44
71344;BME280;59146;43.850;25.948;2022-08-21T02:02:53;100324.81;;;24.07;64.81
71344;BME280;59146;43.850;25.948;2022-08-21T02:05:19;100301.22;;;23.81;65.18
71344;BME280;59146;43.850;25.948;2022-08-21T02:07:48;100314.94;;;23.93;65.13
71344;BME280;59146;43.850;25.948;2022-08-21T02:10:18;100277.47;;;23.72;64.85
71344;BME280;59146;43.850;25.948;2022-08-21T02:12:43;100288.97;;;23.72;65.22
71344;BME280;59146;43.850;25.948;2022-08-21T02:15:09;100335.72;;;23.97;65.47
71344;BME280;59146;43.850;25.948;2022-08-21T02:17:43;100230.19;;;23.36;65.43
71344;BME280;59146;43.850;25.948;2022-08-21T02:20:10;100273.06;;;23.64;65.66
71344;BME280;59146;43.850;25.948;2022-08-21T02:22:36;100307.47;;;23.88;65.82
71344;BME280;59146;43.850;25.948;2022-08-21T02:25:02;100298.03;;;23.86;65.49
71344;BME280;59146;43.850;25.948;2022-08-21T02:27:28;100315.31;;;23.90;65.42
71344;BME280;59146;43.850;25.948;2022-08-21T02:29:56;100306.38;;;23.97;65.39
71344;BME280;59146;43.850;25.948;2022-08-21T02:32:21;100245.38;;;23.65;64.81
71344;BME280;59146;43.850;25.948;2022-08-21T02:34:47;100314.31;;;24.34;63.87
71344;BME280;59146;43.850;25.948;2022-08-21T02:37:12;100264.19;;;24.15;63.94
71344;BME280;59146;43.850;25.948;2022-08-21T02:39:37;100254.25;;;24.09;63.12
71344;BME280;59146;43.850;25.948;2022-08-21T02:42:03;100249.09;;;24.08;63.48
71344;BME280;59146;43.850;25.948;2022-08-21T02:44:29;100220.72;;;23.92;63.12
71344;BME280;59146;43.850;25.948;2022-08-21T02:46:54;100251.75;;;23.93;63.23
71344;BME280;59146;43.850;25.948;2022-08-21T02:49:19;100303.84;;;24.18;63.39
71344;BME280;59146;43.850;25.948;2022-08-21T02:51:45;100278.66;;;24.06;63.51
71344;BME280;59146;43.850;25.948;2022-08-21T02:54:10;100245.22;;;23.81;63.85
71344;BME280;59146;43.850;25.948;2022-08-21T02:56:35;100298.19;;;23.99;64.30
71344;BME280;59146;43.850;25.948;2022-08-21T02:59:01;100273.63;;;23.74;64.42
71344;BME280;59146;43.850;25.948;2022-08-21T03:01:27;100295.59;;;23.76;64.86
71344;BME280;59146;43.850;25.948;2022-08-21T03:03:52;100256.63;;;23.38;65.25
71344;BME280;59146;43.850;25.948;2022-08-21T03:06:21;100255.91;;;23.44;65.11
71344;BME280;59146;43.850;25.948;2022-08-21T03:08:47;100313.09;;;23.79;64.94
71344;BME280;59146;43.850;25.948;2022-08-21T03:11:14;100301.22;;;23.81;64.39
71344;BME280;59146;43.850;25.948;2022-08-21T03:13:40;100299.44;;;23.74;65.06
71344;BME280;59146;43.850;25.948;2022-08-21T03:16:05;100285.22;;;23.66;64.74
71344;BME280;59146;43.850;25.948;2022-08-21T03:18:31;100287.34;;;23.71;64.70
71344;BME280;59146;43.850;25.948;2022-08-21T03:20:57;100263.78;;;23.60;64.77
71344;BME280;59146;43.850;25.948;2022-08-21T03:23:22;100292.09;;;23.76;64.85
71344;BME280;59146;43.850;25.948;2022-08-21T03:25:48;100248.94;;;23.43;64.83
71344;BME280;59146;43.850;25.948;2022-08-21T03:28:19;100289.06;;;23.64;65.18
71344;BME280;59146;43.850;25.948;2022-08-21T03:30:46;100171.03;;;23.04;64.70
71344;BME280;59146;43.850;25.948;2022-08-21T03:33:12;100232.22;;;23.49;64.40
71344;BME280;59146;43.850;25.948;2022-08-21T03:35:37;100274.00;;;23.71;64.88
71344;BME280;59146;43.850;25.948;2022-08-21T03:38:03;100255.59;;;23.76;64.03
71344;BME280;59146;43.850;25.948;2022-08-21T03:40:28;100250.25;;;23.76;63.76
71344;BME280;59146;43.850;25.948;2022-08-21T03:42:54;100240.34;;;23.70;64.18
71344;BME280;59146;43.850;25.948;2022-08-21T03:45:20;100275.47;;;23.88;64.28
71344;BME280;59146;43.850;25.948;2022-08-21T03:47:56;100292.34;;;24.18;63.73
71344;BME280;59146;43.850;25.948;2022-08-21T03:50:24;100248.66;;;24.55;61.78
71344;BME280;59146;43.850;25.948;2022-08-21T03:52:51;100238.91;;;24.83;60.23
71344;BME280;59146;43.850;25.948;2022-08-21T03:55:17;100226.59;;;25.31;58.65
71344;BME280;59146;43.850;25.948;2022-08-21T03:57:43;100260.38;;;25.93;56.96
71344;BME280;59146;43.850;25.948;2022-08-21T04:00:10;100176.22;;;25.55;56.65
71344;BME280;59146;43.850;25.948;2022-08-21T04:02:40;100246.25;;;26.47;54.96
71344;BME280;59146;43.850;25.948;2022-08-21T04:05:07;100242.69;;;27.00;53.23
71344;BME280;59146;43.850;25.948;2022-08-21T04:07:33;100265.00;;;27.46;52.22
71344;BME280;59146;43.850;25.948;2022-08-21T04:09:58;100267.69;;;27.60;51.91
71344;BME280;59146;43.850;25.948;2022-08-21T04:12:23;100212.63;;;27.37;51.44
71344;BME280;59146;43.850;25.948;2022-08-21T04:14:49;100286.72;;;28.86;48.65
71344;BME280;59146;43.850;25.948;2022-08-21T04:17:17;100289.81;;;29.14;47.72
71344;BME280;59146;43.850;25.948;2022-08-21T04:19:42;100318.00;;;29.67;47.41
71344;BME280;59146;43.850;25.948;2022-08-21T04:22:08;100297.53;;;29.91;46.84
71344;BME280;59146;43.850;25.948;2022-08-21T04:24:33;100326.09;;;30.65;45.16
71344;BME280;59146;43.850;25.948;2022-08-21T04:26:59;100346.88;;;31.23;43.54
71344;BME280;59146;43.850;25.948;2022-08-21T04:29:25;100370.00;;;30.35;45.90
71344;BME280;59146;43.850;25.948;2022-08-21T04:31:50;100253.69;;;30.02;45.43
71344;BME280;59146;43.850;25.948;2022-08-21T04:34:17;100328.47;;;31.62;42.58
71344;BME280;59146;43.850;25.948;2022-08-21T04:36:43;100328.22;;;31.86;41.82
71344;BME280;59146;43.850;25.948;2022-08-21T04:39:08;100324.50;;;31.99;40.87
71344;BME280;59146;43.850;25.948;2022-08-21T04:41:34;100362.56;;;32.21;41.40
71344;BME280;59146;43.850;25.948;2022-08-21T04:44:01;100366.47;;;32.76;40.29
71344;BME280;59146;43.850;25.948;2022-08-21T04:46:26;100254.84;;;32.13;40.02
71344;BME280;59146;43.850;25.948;2022-08-21T04:48:52;100342.91;;;32.88;39.20
71344;BME280;59146;43.850;25.948;2022-08-21T04:51:20;100333.25;;;32.52;40.02
71344;BME280;59146;43.850;25.948;2022-08-21T04:59:24;100335.03;;;31.66;41.52
71344;BME280;59146;43.850;25.948;2022-08-21T05:01:51;100351.41;;;32.17;40.85
71344;BME280;59146;43.850;25.948;2022-08-21T05:04:22;100359.94;;;31.79;41.65
71344;BME280;59146;43.850;25.948;2022-08-21T05:06:51;100332.72;;;31.69;42.06
71344;BME280;59146;43.850;25.948;2022-08-21T05:09:19;100371.25;;;32.23;41.42
71344;BME280;59146;43.850;25.948;2022-08-21T05:11:46;100370.03;;;32.65;40.32
71344;BME280;59146;43.850;25.948;2022-08-21T05:14:12;100379.09;;;32.36;41.06
71344;BME280;59146;43.850;25.948;2022-08-21T05:16:38;100387.13;;;31.96;41.89
71344;BME280;59146;43.850;25.948;2022-08-21T05:19:07;100360.56;;;32.04;41.84
71344;BME280;59146;43.850;25.948;2022-08-21T05:21:34;100310.63;;;31.08;43.37
71344;BME280;59146;43.850;25.948;2022-08-21T05:24:00;100345.75;;;31.31;43.36
71344;BME280;59146;43.850;25.948;2022-08-21T05:26:25;100344.56;;;31.27;43.73
71344;BME280;59146;43.850;25.948;2022-08-21T05:28:50;100342.91;;;30.48;45.20
71344;BME280;59146;43.850;25.948;2022-08-21T05:31:17;100384.22;;;30.42;46.20
71344;BME280;59146;43.850;25.948;2022-08-21T05:33:42;100381.28;;;30.80;45.16
71344;BME280;59146;43.850;25.948;2022-08-21T05:36:08;100374.09;;;30.74;44.87
71344;BME280;59146;43.850;25.948;2022-08-21T05:38:34;100377.78;;;30.62;45.19
71344;BME280;59146;43.850;25.948;2022-08-21T05:40:59;100335.31;;;30.21;45.47
71344;BME280;59146;43.850;25.948;2022-08-21T05:43:25;100390.59;;;30.23;46.27
71344;BME280;59146;43.850;25.948;2022-08-21T05:45:50;100384.53;;;30.52;45.39
71344;BME280;59146;43.850;25.948;2022-08-21T05:48:20;100355.91;;;30.33;45.55
71344;BME280;59146;43.850;25.948;2022-08-21T05:50:47;100393.16;;;31.09;44.31
71344;BME280;59146;43.850;25.948;2022-08-21T05:53:14;100345.78;;;30.83;44.44
71344;BME280;59146;43.850;25.948;2022-08-21T05:55:41;100359.16;;;31.08;44.02
71344;BME280;59146;43.850;25.948;2022-08-21T05:58:06;100346.97;;;31.17;43.96
71344;BME280;59146;43.850;25.948;2022-08-21T06:00:32;100366.69;;;30.70;44.49
71344;BME280;59146;43.850;25.948;2022-08-21T06:02:59;100346.94;;;30.57;44.66
71344;BME280;59146;43.850;25.948;2022-08-21T06:05:25;100379.84;;;31.14;44.02
71344;BME280;59146;43.850;25.948;2022-08-21T06:07:51;100385.41;;;31.01;44.17
71344;BME280;59146;43.850;25.948;2022-08-21T06:10:17;100371.94;;;30.65;44.86
71344;BME280;59146;43.850;25.948;2022-08-21T06:12:43;100357.88;;;30.44;45.12
71344;BME280;59146;43.850;25.948;2022-08-21T06:15:09;100340.16;;;30.37;45.01
71344;BME280;59146;43.850;25.948;2022-08-21T06:17:34;100375.31;;;30.60;44.46
71344;BME280;59146;43.850;25.948;2022-08-21T06:19:59;100371.06;;;30.10;45.66
71344;BME280;59146;43.850;25.948;2022-08-21T06:22:25;100376.06;;;30.49;44.78
71344;BME280;59146;43.850;25.948;2022-08-21T06:24:51;100358.84;;;30.86;44.12
71344;BME280;59146;43.850;25.948;2022-08-21T06:27:16;100369.63;;;31.16;42.79
71344;BME280;59146;43.850;25.948;2022-08-21T06:29:43;100323.31;;;30.71;43.06
71344;BME280;59146;43.850;25.948;2022-08-21T06:32:11;100387.78;;;31.09;44.03
71344;BME280;59146;43.850;25.948;2022-08-21T06:34:39;100385.13;;;31.20;43.45
71344;BME280;59146;43.850;25.948;2022-08-21T06:37:04;100337.53;;;30.96;42.93
71344;BME280;59146;43.850;25.948;2022-08-21T06:39:31;100317.03;;;30.77;43.28
71344;BME280;59146;43.850;25.948;2022-08-21T06:41:57;100355.91;;;30.33;44.41
71344;BME280;59146;43.850;25.948;2022-08-21T06:44:22;100387.22;;;30.34;45.13
71344;BME280;59146;43.850;25.948;2022-08-21T06:46:47;100326.97;;;29.86;45.18
71344;BME280;59146;43.850;25.948;2022-08-21T06:49:13;100377.94;;;30.48;45.03
71344;BME280;59146;43.850;25.948;2022-08-21T06:51:39;100335.28;;;30.45;44.27
71344;BME280;59146;43.850;25.948;2022-08-21T06:54:05;100359.50;;;30.64;43.46
71344;BME280;59146;43.850;25.948;2022-08-21T06:56:30;100400.56;;;31.02;43.64
71344;BME280;59146;43.850;25.948;2022-08-21T06:58:56;100340.66;;;31.11;42.12
71344;BME280;59146;43.850;25.948;2022-08-21T07:01:24;100409.19;;;31.22;41.97
71344;BME280;59146;43.850;25.948;2022-08-21T07:03:50;100342.75;;;31.09;41.77
71344;BME280;59146;43.850;25.948;2022-08-21T07:06:16;100347.06;;;31.40;41.40
71344;BME280;59146;43.850;25.948;2022-08-21T07:08:42;100362.22;;;31.41;40.34
71344;BME280;59146;43.850;25.948;2022-08-21T07:11:14;100399.19;;;31.93;39.74
71344;BME280;59146;43.850;25.948;2022-08-21T07:13:42;100376.81;;;31.63;40.47
71344;BME280;59146;43.850;25.948;2022-08-21T07:16:07;100362.66;;;31.79;40.28
71344;BME280;59146;43.850;25.948;2022-08-21T07:18:33;100348.44;;;31.72;39.77
71344;BME280;59146;43.850;25.948;2022-08-21T07:21:01;100388.50;;;32.33;39.80
71344;BME280;59146;43.850;25.948;2022-08-21T07:23:30;100383.81;;;32.40;38.83
71344;BME280;59146;43.850;25.948;2022-08-21T07:25:57;100355.72;;;32.53;39.31
71344;BME280;59146;43.850;25.948;2022-08-21T07:28:24;100354.31;;;32.50;38.53
71344;BME280;59146;43.850;25.948;2022-08-21T07:30:52;100387.88;;;32.77;37.84
71344;BME280;59146;43.850;25.948;2022-08-21T07:33:18;100346.34;;;32.72;37.43
71344;BME280;59146;43.850;25.948;2022-08-21T07:35:43;100379.31;;;32.69;38.36
71344;BME280;59146;43.850;25.948;2022-08-21T07:38:09;100363.66;;;32.71;38.05
71344;BME280;59146;43.850;25.948;2022-08-21T07:40:34;100325.09;;;32.64;38.33
71344;BME280;59146;43.850;25.948;2022-08-21T07:43:00;100359.69;;;33.02;37.64
71344;BME280;59146;43.850;25.948;2022-08-21T07:45:25;100340.53;;;32.52;37.68
71344;BME280;59146;43.850;25.948;2022-08-21T07:47:51;100371.06;;;32.75;37.82
71344;BME280;59146;43.850;25.948;2022-08-21T07:50:17;100318.22;;;32.56;38.08
71344;BME280;59146;43.850;25.948;2022-08-21T07:52:43;100300.88;;;32.18;38.84
71344;BME280;59146;43.850;25.948;2022-08-21T07:55:15;100328.06;;;32.62;38.15
71344;BME280;59146;43.850;25.948;2022-08-21T07:57:41;100319.28;;;32.44;38.30
71344;BME280;59146;43.850;25.948;2022-08-21T08:00:09;100312.47;;;32.53;38.01
71344;BME280;59146;43.850;25.948;2022-08-21T08:02:36;100244.28;;;31.99;37.96
71344;BME280;59146;43.850;25.948;2022-08-21T08:05:04;100304.59;;;32.28;38.15
71344;BME280;59146;43.850;25.948;2022-08-21T08:07:30;100317.53;;;32.26;38.14
71344;BME280;59146;43.850;25.948;2022-08-21T08:09:55;100334.81;;;32.48;38.29
71344;BME280;59146;43.850;25.948;2022-08-21T08:12:22;100354.06;;;32.52;38.63
71344;BME280;59146;43.850;25.948;2022-08-21T08:14:47;100306.19;;;32.01;39.00
71344;BME280;59146;43.850;25.948;2022-08-21T08:17:13;100313.34;;;31.84;38.94
71344;BME280;59146;43.850;25.948;2022-08-21T08:19:39;100350.88;;;31.74;39.56
71344;BME280;59146;43.850;25.948;2022-08-21T08:22:18;100327.97;;;31.12;40.77
71344;BME280;59146;43.850;25.948;2022-08-21T08:24:46;100258.41;;;30.73;40.89
71344;BME280;59146;43.850;25.948;2022-08-21T08:27:11;100314.91;;;31.27;40.29
71344;BME280;59146;43.850;25.948;2022-08-21T08:29:37;100299.75;;;31.26;39.90
71344;BME280;59146;43.850;25.948;2022-08-21T08:32:04;100322.97;;;31.57;39.37
71344;BME280;59146;43.850;25.948;2022-08-21T08:34:32;100297.16;;;31.19;39.86
71344;BME280;59146;43.850;25.948;2022-08-21T08:36:58;100308.19;;;31.29;39.83
71344;BME280;59146;43.850;25.948;2022-08-21T08:39:24;100325.28;;;31.42;41.48
71344;BME280;59146;43.850;25.948;2022-08-21T08:41:57;100281.03;;;31.01;41.25
71344;BME280;59146;43.850;25.948;2022-08-21T08:44:24;100268.09;;;30.62;41.68
71344;BME280;59146;43.850;25.948;2022-08-21T08:46:51;100261.66;;;30.63;41.66
71344;BME280;59146;43.850;25.948;2022-08-21T08:55:13;100265.91;;;31.00;42.49
71344;BME280;59146;43.850;25.948;2022-08-21T08:57:17;100301.25;;;31.10;43.12
71344;BME280;59146;43.850;25.948;2022-08-21T08:59:46;100304.09;;;31.38;42.40
71344;BME280;59146;43.850;25.948;2022-08-21T09:02:15;100274.03;;;31.12;42.63
71344;BME280;59146;43.850;25.948;2022-08-21T09:04:41;100257.47;;;30.97;42.12
71344;BME280;59146;43.850;25.948;2022-08-21T09:07:32;100287.53;;;31.23;42.42
71344;BME280;59146;43.850;25.948;2022-08-21T09:13:07;100306.16;;;31.89;41.15
71344;BME280;59146;43.850;25.948;2022-08-21T09:16:02;100267.59;;;31.24;41.54
71344;BME280;59146;43.850;25.948;2022-08-21T09:24:40;100277.75;;;31.52;41.10
71344;BME280;59146;43.850;25.948;2022-08-21T09:29:40;100272.22;;;31.82;40.11
71344;BME280;59146;43.850;25.948;2022-08-21T09:32:14;100263.69;;;31.96;39.80
71344;BME280;59146;43.850;25.948;2022-08-21T09:34:42;100285.31;;;31.96;39.93
71344;BME280;59146;43.850;25.948;2022-08-21T09:37:16;100274.91;;;32.17;39.39
71344;BME280;59146;43.850;25.948;2022-08-21T09:39:43;100215.38;;;31.88;38.74
71344;BME280;59146;43.850;25.948;2022-08-21T09:42:09;100273.47;;;32.49;38.66
71344;BME280;59146;43.850;25.948;2022-08-21T09:44:40;100196.72;;;31.87;38.83
71344;BME280;59146;43.850;25.948;2022-08-21T09:47:09;100228.34;;;32.38;38.05
71344;BME280;59146;43.850;25.948;2022-08-21T09:49:38;100216.13;;;32.47;38.75
71344;BME280;59146;43.850;25.948;2022-08-21T09:52:16;100232.53;;;32.57;37.54
71344;BME280;59146;43.850;25.948;2022-08-21T09:54:44;100224.31;;;32.52;38.77
71344;BME280;59146;43.850;25.948;2022-08-21T09:59:54;100216.13;;;32.47;38.77
71344;BME280;59146;43.850;25.948;2022-08-21T10:02:32;100253.50;;;32.66;38.41
71344;BME280;59146;43.850;25.948;2022-08-21T10:05:01;100193.31;;;32.03;39.26
71344;BME280;59146;43.850;25.948;2022-08-21T10:07:31;100236.44;;;32.66;37.87
71344;BME280;59146;43.850;25.948;2022-08-21T10:10:25;100233.88;;;32.87;36.89
71344;BME280;59146;43.850;25.948;2022-08-21T10:18:09;100222.53;;;33.19;36.05
71344;BME280;59146;43.850;25.948;2022-08-21T10:24:12;100173.94;;;33.07;35.15
71344;BME280;59146;43.850;25.948;2022-08-21T10:29:38;100215.53;;;33.39;35.31
71344;BME280;59146;43.850;25.948;2022-08-21T10:47:57;100137.59;;;33.41;35.07
71344;BME280;59146;43.850;25.948;2022-08-21T10:50:47;100145.16;;;33.39;35.34
71344;BME280;59146;43.850;25.948;2022-08-21T10:53:46;100153.28;;;33.78;34.98
71344;BME280;59146;43.850;25.948;2022-08-21T11:04:48;100151.97;;;33.80;34.31
71344;BME280;59146;43.850;25.948;2022-08-21T11:07:20;100173.41;;;34.03;33.76
71344;BME280;59146;43.850;25.948;2022-08-21T11:09:48;100138.16;;;33.82;34.00
71344;BME280;59146;43.850;25.948;2022-08-21T11:12:24;100142.44;;;33.99;33.73
71344;BME280;59146;43.850;25.948;2022-08-21T11:15:00;100169.38;;;34.06;33.49
71344;BME280;59146;43.850;25.948;2022-08-21T11:17:34;100167.84;;;34.15;33.98
71344;BME280;59146;43.850;25.948;2022-08-21T11:20:09;100159.25;;;34.23;34.28
71344;BME280;59146;43.850;25.948;2022-08-21T11:26:02;100097.53;;;33.82;33.45
71344;BME280;59146;43.850;25.948;2022-08-21T11:28:37;100134.16;;;34.06;32.40
71344;BME280;59146;43.850;25.948;2022-08-21T11:36:49;100072.09;;;34.36;31.43
71344;BME280;59146;43.850;25.948;2022-08-21T11:39:25;100054.97;;;34.57;31.03
71344;BME280;59146;43.850;25.948;2022-08-21T11:50:15;100108.47;;;34.40;32.16
71344;BME280;59146;43.850;25.948;2022-08-21T11:52:56;100065.56;;;34.32;32.55
71344;BME280;59146;43.850;25.948;2022-08-21T11:55:40;100076.75;;;34.40;31.29
71344;BME280;59146;43.850;25.948;2022-08-21T11:58:26;100095.09;;;34.92;31.62
71344;BME280;59146;43.850;25.948;2022-08-21T12:00:54;100060.63;;;34.87;30.74
71344;BME280;59146;43.850;25.948;2022-08-21T12:03:33;100019.47;;;34.32;31.58
71344;BME280;59146;43.850;25.948;2022-08-21T12:06:00;100094.97;;;35.08;31.63
71344;BME280;59146;43.850;25.948;2022-08-21T12:13:40;100046.72;;;35.26;30.35
71344;BME280;59146;43.850;25.948;2022-08-21T12:16:35;100007.47;;;34.96;30.33
71344;BME280;59146;43.850;25.948;2022-08-21T12:19:14;100081.59;;;35.44;30.42
71344;BME280;59146;43.850;25.948;2022-08-21T12:29:38;100021.88;;;33.10;31.43
71344;BME280;59146;43.850;25.948;2022-08-21T12:34:53;100014.16;;;32.64;31.45
71344;BME280;59146;43.850;25.948;2022-08-21T12:37:27;100034.97;;;32.80;31.65
71344;BME280;59146;43.850;25.948;2022-08-21T12:39:59;100016.66;;;32.49;32.06
71344;BME280;59146;43.850;25.948;2022-08-21T12:42:37;100018.00;;;32.18;34.03
71344;BME280;59146;43.850;25.948;2022-08-21T12:45:19;100035.34;;;32.22;33.67
71344;BME280;59146;43.850;25.948;2022-08-21T12:52:51;100016.22;;;32.24;33.15
71344;BME280;59146;43.850;25.948;2022-08-21T12:55:27;100011.59;;;32.07;32.31
71344;BME280;59146;43.850;25.948;2022-08-21T12:57:53;99932.63;;;31.72;32.24
71344;BME280;59146;43.850;25.948;2022-08-21T13:00:24;100049.16;;;32.54;32.45
71344;BME280;59146;43.850;25.948;2022-08-21T13:02:51;100008.69;;;32.26;32.94
71344;BME280;59146;43.850;25.948;2022-08-21T13:05:33;100042.88;;;32.20;33.81
71344;BME280;59146;43.850;25.948;2022-08-21T13:08:03;100023.09;;;31.58;36.96
71344;BME280;59146;43.850;25.948;2022-08-21T13:10:31;100014.75;;;30.97;39.03
71344;BME280;59146;43.850;25.948;2022-08-21T13:12:59;100073.63;;;31.00;39.81
71344;BME280;59146;43.850;25.948;2022-08-21T13:15:31;100054.34;;;30.85;39.92
71344;BME280;59146;43.850;25.948;2022-08-21T13:17:58;100059.88;;;30.67;40.51
71344;BME280;59146;43.850;25.948;2022-08-21T13:20:37;100062.88;;;30.17;40.47
71344;BME280;59146;43.850;25.948;2022-08-21T13:23:18;100094.47;;;30.10;40.33
71344;BME280;59146;43.850;25.948;2022-08-21T13:25:44;100062.31;;;29.67;41.58
71344;BME280;59146;43.850;25.948;2022-08-21T13:28:11;100075.72;;;29.20;44.30
71344;BME280;59146;43.850;25.948;2022-08-21T13:30:43;100047.06;;;29.07;45.75
71344;BME280;59146;43.850;25.948;2022-08-21T13:33:10;100062.97;;;29.08;45.42
71344;BME280;59146;43.850;25.948;2022-08-21T13:35:57;100086.63;;;29.25;44.61
71344;BME280;59146;43.850;25.948;2022-08-21T13:38:30;100100.34;;;29.17;44.76
71344;BME280;59146;43.850;25.948;2022-08-21T13:41:02;100098.75;;;29.09;44.88
71344;BME280;59146;43.850;25.948;2022-08-21T13:43:32;100036.91;;;28.66;44.52
71344;BME280;59146;43.850;25.948;2022-08-21T13:45:59;100079.59;;;28.56;44.61
71344;BME280;59146;43.850;25.948;2022-08-21T13:48:28;100045.63;;;28.06;47.57
71344;BME280;59146;43.850;25.948;2022-08-21T13:50:55;99918.25;;;26.75;50.07
71344;BME280;59146;43.850;25.948;2022-08-21T13:53:46;100092.84;;;27.69;51.64
71344;BME280;59146;43.850;25.948;2022-08-21T13:56:33;100053.34;;;27.25;52.71
71344;BME280;59146;43.850;25.948;2022-08-21T13:59:06;100090.47;;;27.28;54.31
71344;BME280;59146;43.850;25.948;2022-08-21T14:01:49;100108.19;;;27.29;53.49
71344;BME280;59146;43.850;25.948;2022-08-21T14:04:21;100100.66;;;26.94;54.02
71344;BME280;59146;43.850;25.948;2022-08-21T14:06:47;100067.84;;;26.39;56.17
71344;BME280;59146;43.850;25.948;2022-08-21T14:09:31;100122.66;;;26.56;54.97
71344;BME280;59146;43.850;25.948;2022-08-21T14:12:00;100128.00;;;26.50;54.32
71344;BME280;59146;43.850;25.948;2022-08-21T14:14:32;100080.81;;;26.42;53.67
71344;BME280;59146;43.850;25.948;2022-08-21T14:17:01;100084.34;;;26.43;52.82
71344;BME280;59146;43.850;25.948;2022-08-21T14:19:45;100067.41;;;26.29;54.76
71344;BME280;59146;43.850;25.948;2022-08-21T14:25:00;100053.75;;;26.05;56.46
71344;BME280;59146;43.850;25.948;2022-08-21T14:27:29;100047.63;;;26.17;56.46
71344;BME280;59146;43.850;25.948;2022-08-21T14:29:58;100064.75;;;26.42;55.89